KDVN

Davenport Municipal Airport

Davenport, Iowa, USA
METAR KDVN 141652Z AUTO 01008KT 1/4SM FG VV002 00/M01 A3025 RMK AO2 SLP248 T00001006
Observed Flight Rules
Dec-14 @ 16:52 UTC (13 minutes ago) Instrument Flight Rules
Wind Visibility Clouds Conditions
10° at 8 knots 1/4 miles
  • Vertical visibility at 200' AGL
  • Fog
Temperatures Readings
Current 0°C / 32°F
Dewpoint -1°C / 30°F
Humidity 93%
Altimeter 30.25" Hg
Pressure 1024.8 hPa
Elevation 230
METAR KDVN 141652Z AUTO 01008KT 1/4SM FG VV002 00/M01 A3025 RMK AO2 SLP248 T00001006
Observed Flight Rules
Dec-14 @ 16:52 UTC
(13 minutes ago)
LIFR
Wind Visibility
10° at 8 knots 1/4 miles
Clouds
  • Vertical visibility at 200' AGL
Conditions
  • Fog
Temperature Dewpoint
0°C / 32°F -1°C / 30°F
Humidity Altimeter Pressure
93% 30.25" Hg 1024.8 hPa